Time;durP1;ratioP1;P1;durP2;ratioP2;P2;SDS_P1;SDS_P2;PMS_P1;PMS_P2;Temp;Humidity;BMP_temperature;BMP_pressure;BME280_temperature;BME280_humidity;BME280_pressure;Samples;Min_cycle;Max_cycle;Signal;HPM_P1;HPM_P2
2022/02/17 00:00:54;;;;;;;9.18;2.10;;;;;;;;;;4966773;28;20019;-77
2022/02/17 00:03:20;;;;;;;6.10;2.20;;;;;;;;;;4971618;28;20034;-79
2022/02/17 00:05:46;;;;;;;10.93;1.75;;;;;;;;;;4956222;28;20038;-77
2022/02/17 00:08:13;;;;;;;8.55;2.13;;;;;;;;;;4950446;28;20507;-74
2022/02/17 00:10:39;;;;;;;6.07;1.35;;;;;;;;;;4952221;29;20035;-78
2022/02/17 00:13:05;;;;;;;5.38;1.30;;;;;;;;;;4952301;28;20038;-78
2022/02/17 00:15:32;;;;;;;8.13;2.30;;;;;;;;;;4951827;29;20031;-74
2022/02/17 00:17:59;;;;;;;7.90;1.60;;;;;;;;;;4951841;28;20023;-77
2022/02/17 00:20:25;;;;;;;11.48;1.80;;;;;;;;;;4969826;28;20494;-76
2022/02/17 00:22:51;;;;;;;8.55;2.70;;;;;;;;;;4966226;28;20510;-77
2022/02/17 00:25:17;;;;;;;11.10;2.20;;;;;;;;;;4970841;28;20097;-76
2022/02/17 00:27:44;;;;;;;6.20;1.80;;;;;;;;;;4970952;28;20178;-74
2022/02/17 00:30:10;;;;;;;16.25;2.03;;;;;;;;;;4969772;28;20030;-77
2022/02/17 00:32:37;;;;;;;10.60;2.38;;;;;;;;;;4970850;28;20114;-75
2022/02/17 00:35:04;;;;;;;9.30;2.08;;;;;;;;;;4957155;28;20043;-77
2022/02/17 00:37:31;;;;;;;10.85;2.00;;;;;;;;;;4951393;28;20053;-78
2022/02/17 00:39:57;;;;;;;12.13;2.00;;;;;;;;;;4951855;28;20102;-78
2022/02/17 00:42:23;;;;;;;5.72;2.53;;;;;;;;;;4951330;28;20067;-76
2022/02/17 00:44:52;;;;;;;7.18;1.75;;;;;;;;;;4950004;28;20023;-78
2022/02/17 00:47:18;;;;;;;8.00;1.48;;;;;;;;;;4951281;28;20027;-78
2022/02/17 00:49:45;;;;;;;10.93;1.88;;;;;;;;;;4952337;28;20031;-72
2022/02/17 00:52:11;;;;;;;5.95;1.50;;;;;;;;;;4952380;28;20089;-77
2022/02/17 00:54:37;;;;;;;11.40;1.85;;;;;;;;;;4969106;28;20026;-77
2022/02/17 00:57:03;;;;;;;7.40;1.70;;;;;;;;;;4970183;28;20034;-75
2022/02/17 00:59:30;;;;;;;8.90;1.95;;;;;;;;;;4970475;28;20027;-71
2022/02/17 01:01:56;;;;;;;8.38;1.90;;;;;;;;;;4966579;28;20399;-77
2022/02/17 01:04:23;;;;;;;8.07;1.40;;;;;;;;;;4970398;28;20502;-76
2022/02/17 01:06:49;;;;;;;9.73;1.38;;;;;;;;;;4970173;28;20030;-77
2022/02/17 01:09:15;;;;;;;8.60;1.90;;;;;;;;;;4969115;28;20018;-77
2022/02/17 01:11:42;;;;;;;8.45;1.67;;;;;;;;;;4970072;28;20026;-70
2022/02/17 01:14:09;;;;;;;9.07;1.50;;;;;;;;;;4961187;28;20035;-75
2022/02/17 01:16:35;;;;;;;11.30;1.70;;;;;;;;;;4949279;28;20027;-77
2022/02/17 01:19:01;;;;;;;4.88;1.65;;;;;;;;;;4950860;28;20027;-71
2022/02/17 01:21:27;;;;;;;11.43;2.20;;;;;;;;;;4950619;28;20054;-75
2022/02/17 01:23:54;;;;;;;7.38;1.42;;;;;;;;;;4969558;28;20029;-71
2022/02/17 01:26:20;;;;;;;9.75;1.52;;;;;;;;;;4970379;28;20025;-77
2022/02/17 01:28:46;;;;;;;12.07;2.22;;;;;;;;;;4970174;28;20030;-75
2022/02/17 01:31:13;;;;;;;5.75;1.67;;;;;;;;;;4967803;28;20035;-74
2022/02/17 01:33:39;;;;;;;6.75;1.65;;;;;;;;;;4968417;28;20031;-76
2022/02/17 01:36:08;;;;;;;9.93;1.80;;;;;;;;;;4970102;28;20043;-76
2022/02/17 01:38:38;;;;;;;6.75;1.52;;;;;;;;;;4968271;28;20031;-74
2022/02/17 01:41:05;;;;;;;10.85;3.03;;;;;;;;;;4969541;28;20030;-77
2022/02/17 01:43:32;;;;;;;10.07;2.50;;;;;;;;;;4967800;28;20383;-76
2022/02/17 01:45:59;;;;;;;9.35;2.80;;;;;;;;;;4950138;29;20555;-75
2022/02/17 01:48:25;;;;;;;8.32;1.92;;;;;;;;;;4949169;28;20027;-75
2022/02/17 01:50:51;;;;;;;6.60;1.67;;;;;;;;;;4950172;28;20024;-76
2022/02/17 01:53:18;;;;;;;9.50;1.75;;;;;;;;;;4949983;28;20507;-77
2022/02/17 01:55:46;;;;;;;5.90;1.65;;;;;;;;;;4948867;29;20031;-71
2022/02/17 01:58:13;;;;;;;6.07;1.55;;;;;;;;;;4950686;29;20110;-70
2022/02/17 02:00:39;;;;;;;6.22;2.00;;;;;;;;;;4949788;28;20060;-76
2022/02/17 02:03:07;;;;;;;11.10;2.28;;;;;;;;;;4950867;28;20105;-76
2022/02/17 02:05:33;;;;;;;10.13;1.60;;;;;;;;;;4949035;28;20558;-77
2022/02/17 02:08:00;;;;;;;5.95;1.70;;;;;;;;;;4948425;28;20415;-75
2022/02/17 02:10:26;;;;;;;4.95;1.50;;;;;;;;;;4949954;28;20027;-77
2022/02/17 02:12:53;;;;;;;7.72;1.25;;;;;;;;;;4949966;28;20031;-76
2022/02/17 02:15:19;;;;;;;7.07;1.38;;;;;;;;;;4949539;28;20459;-71
2022/02/17 02:17:45;;;;;;;14.13;1.40;;;;;;;;;;4949879;29;20031;-72
2022/02/17 02:20:18;;;;;;;6.53;1.30;;;;;;;;;;4950940;28;20027;-72
2022/02/17 02:22:44;;;;;;;5.82;1.42;;;;;;;;;;4964584;28;20046;-69
2022/02/17 02:25:10;;;;;;;6.97;1.50;;;;;;;;;;4946779;28;20519;-76
2022/02/17 02:27:37;;;;;;;3.45;1.02;;;;;;;;;;4945242;29;20715;-75
2022/02/17 02:30:04;;;;;;;5.68;1.42;;;;;;;;;;4945210;29;20164;-78
2022/02/17 02:32:30;;;;;;;11.23;2.00;;;;;;;;;;4961823;28;20066;-71
2022/02/17 02:34:56;;;;;;;6.57;1.17;;;;;;;;;;4962089;28;20026;-73
2022/02/17 02:37:22;;;;;;;6.22;1.80;;;;;;;;;;4962544;28;20582;-74
2022/02/17 02:39:48;;;;;;;5.78;1.40;;;;;;;;;;4964560;28;20023;-73
2022/02/17 02:42:16;;;;;;;6.95;1.10;;;;;;;;;;4962313;28;20081;-76
2022/02/17 02:44:43;;;;;;;7.13;1.70;;;;;;;;;;4957654;28;20383;-71
2022/02/17 02:47:09;;;;;;;7.28;1.50;;;;;;;;;;4944474;28;20046;-77
2022/02/17 02:49:39;;;;;;;6.85;1.60;;;;;;;;;;4943643;29;20031;-76
2022/02/17 02:52:06;;;;;;;8.52;1.52;;;;;;;;;;4944658;28;20121;-75
2022/02/17 02:54:32;;;;;;;6.75;1.60;;;;;;;;;;4944614;29;20062;-71
2022/02/17 02:56:59;;;;;;;6.03;1.58;;;;;;;;;;4944769;28;20038;-70
2022/02/17 02:59:25;;;;;;;7.57;1.75;;;;;;;;;;4942849;29;20031;-74
2022/02/17 03:01:51;;;;;;;5.45;1.50;;;;;;;;;;4944675;29;20035;-76
2022/02/17 03:04:17;;;;;;;4.25;1.27;;;;;;;;;;4944056;29;20031;-69
2022/02/17 03:06:43;;;;;;;3.42;1.20;;;;;;;;;;4944019;28;20043;-78
2022/02/17 03:09:09;;;;;;;3.38;0.90;;;;;;;;;;4944123;29;20542;-69
2022/02/17 03:11:35;;;;;;;6.57;1.52;;;;;;;;;;4944655;28;20034;-69
2022/02/17 03:14:03;;;;;;;6.60;1.63;;;;;;;;;;4961847;28;20039;-70
2022/02/17 03:16:30;;;;;;;5.68;1.48;;;;;;;;;;4951825;28;20059;-76
2022/02/17 03:18:57;;;;;;;6.30;1.77;;;;;;;;;;4947761;28;20085;-70
2022/02/17 03:21:23;;;;;;;7.18;1.58;;;;;;;;;;4957450;28;20054;-76
2022/02/17 03:23:49;;;;;;;8.85;1.48;;;;;;;;;;4973181;28;20160;-69
2022/02/17 03:26:15;;;;;;;11.15;1.70;;;;;;;;;;4946654;29;20074;-77
2022/02/17 03:28:41;;;;;;;6.38;1.42;;;;;;;;;;4959814;28;20030;-73
2022/02/17 03:31:08;;;;;;;8.88;1.50;;;;;;;;;;4965618;28;20057;-76
2022/02/17 03:33:34;;;;;;;6.68;1.52;;;;;;;;;;4965588;28;20113;-74
2022/02/17 03:36:00;;;;;;;7.45;1.33;;;;;;;;;;4964427;28;20118;-77
2022/02/17 03:38:26;;;;;;;5.43;1.02;;;;;;;;;;4965328;28;20022;-77
2022/02/17 03:40:52;;;;;;;8.23;1.13;;;;;;;;;;4965447;28;20034;-70
2022/02/17 03:43:18;;;;;;;8.13;1.40;;;;;;;;;;4947477;28;20028;-72
2022/02/17 03:45:44;;;;;;;7.15;1.60;;;;;;;;;;4945874;29;20023;-75
2022/02/17 03:48:11;;;;;;;7.45;1.45;;;;;;;;;;4955000;28;20030;-69
2022/02/17 03:50:37;;;;;;;18.23;1.42;;;;;;;;;;4973296;28;20023;-76
2022/02/17 03:53:03;;;;;;;6.15;1.60;;;;;;;;;;4945687;28;20603;-74
2022/02/17 03:55:29;;;;;;;6.32;1.38;;;;;;;;;;4956342;28;20031;-69
2022/02/17 03:57:55;;;;;;;4.90;1.42;;;;;;;;;;4965366;28;20379;-77
2022/02/17 04:00:21;;;;;;;3.42;1.25;;;;;;;;;;4965410;28;20030;-76
2022/02/17 04:02:47;;;;;;;7.47;1.83;;;;;;;;;;4961355;28;20034;-74
2022/02/17 04:05:13;;;;;;;12.25;1.95;;;;;;;;;;4963288;28;20609;-74
2022/02/17 04:07:40;;;;;;;7.53;1.45;;;;;;;;;;4962980;28;20035;-70
2022/02/17 04:10:06;;;;;;;5.05;1.52;;;;;;;;;;4962219;28;20057;-76
2022/02/17 04:12:33;;;;;;;5.00;1.45;;;;;;;;;;4962734;28;20039;-76
2022/02/17 04:14:59;;;;;;;9.32;1.20;;;;;;;;;;4949203;28;20027;-70
2022/02/17 04:17:25;;;;;;;15.82;1.73;;;;;;;;;;4959155;28;20146;-69
2022/02/17 04:19:52;;;;;;;6.45;1.30;;;;;;;;;;4960089;28;20034;-76
2022/02/17 04:22:19;;;;;;;10.43;1.38;;;;;;;;;;4958502;28;20565;-69
2022/02/17 04:24:45;;;;;;;7.32;1.63;;;;;;;;;;4959949;28;20026;-74
2022/02/17 04:27:11;;;;;;;4.40;1.27;;;;;;;;;;4957118;28;20073;-73
2022/02/17 04:29:37;;;;;;;5.50;1.25;;;;;;;;;;4963282;28;20037;-69
2022/02/17 04:32:04;;;;;;;11.38;1.60;;;;;;;;;;4962067;28;20035;-74
2022/02/17 04:34:30;;;;;;;11.40;2.08;;;;;;;;;;4944750;29;20503;-76
2022/02/17 04:36:56;;;;;;;5.05;1.15;;;;;;;;;;4944717;29;20160;-69
2022/02/17 04:39:22;;;;;;;7.63;1.25;;;;;;;;;;4944398;28;20039;-74
2022/02/17 04:44:33;;;;;;;3.63;1.00;;;;;;;;;;4945060;29;20424;-74
2022/02/17 04:46:59;;;;;;;3.92;1.20;;;;;;;;;;4960194;28;20505;-77
2022/02/17 04:49:25;;;;;;;6.93;1.30;;;;;;;;;;4963911;28;20027;-71
2022/02/17 04:51:51;;;;;;;8.68;1.45;;;;;;;;;;4946180;28;20031;-71
2022/02/17 04:54:18;;;;;;;4.32;1.08;;;;;;;;;;4944270;28;20034;-72
2022/02/17 04:56:44;;;;;;;2.90;1.05;;;;;;;;;;4944778;29;20027;-74
2022/02/17 04:59:10;;;;;;;5.00;1.77;;;;;;;;;;4944194;28;20032;-74
2022/02/17 05:01:36;;;;;;;8.13;1.13;;;;;;;;;;4942532;29;20050;-73
2022/02/17 05:04:02;;;;;;;6.90;1.35;;;;;;;;;;4944372;28;20023;-70
2022/02/17 05:06:28;;;;;;;8.13;1.20;;;;;;;;;;4944217;28;20035;-75
2022/02/17 05:08:54;;;;;;;5.65;1.25;;;;;;;;;;4949040;28;20023;-78
2022/02/17 05:11:21;;;;;;;5.60;1.52;;;;;;;;;;4961924;28;20046;-70
2022/02/17 05:13:47;;;;;;;3.05;1.08;;;;;;;;;;4963179;28;20058;-76
2022/02/17 05:16:13;;;;;;;5.55;1.33;;;;;;;;;;4963668;28;20038;-77
2022/02/17 05:18:39;;;;;;;4.25;1.58;;;;;;;;;;4944133;28;20027;-71
2022/02/17 05:21:05;;;;;;;3.90;1.20;;;;;;;;;;4943615;28;20054;-71
2022/02/17 05:23:31;;;;;;;4.53;1.08;;;;;;;;;;4949143;28;20035;-70
2022/02/17 05:25:58;;;;;;;7.95;1.60;;;;;;;;;;4943268;29;20066;-70
2022/02/17 05:28:24;;;;;;;7.00;1.45;;;;;;;;;;4943195;28;20027;-71
2022/02/17 05:30:50;;;;;;;5.50;1.13;;;;;;;;;;4944462;28;20028;-76
2022/02/17 05:33:16;;;;;;;5.63;1.10;;;;;;;;;;4943987;28;20030;-74
2022/02/17 05:35:43;;;;;;;9.77;1.70;;;;;;;;;;4942101;28;20508;-75
2022/02/17 05:38:09;;;;;;;10.98;1.85;;;;;;;;;;4943315;28;20605;-72
2022/02/17 05:40:35;;;;;;;6.70;1.77;;;;;;;;;;4943653;28;20039;-70
2022/02/17 05:43:02;;;;;;;7.65;1.15;;;;;;;;;;4943648;28;20031;-70
2022/02/17 05:45:28;;;;;;;7.75;1.38;;;;;;;;;;4943383;29;20505;-72
2022/02/17 05:47:56;;;;;;;6.75;1.60;;;;;;;;;;4942079;28;20042;-74
2022/02/17 05:50:22;;;;;;;7.20;1.23;;;;;;;;;;4945890;28;20723;-71
2022/02/17 05:52:48;;;;;;;5.90;1.33;;;;;;;;;;4963088;28;20471;-70
2022/02/17 05:55:16;;;;;;;7.28;1.00;;;;;;;;;;4962406;28;20031;-70
2022/02/17 05:57:42;;;;;;;5.72;1.65;;;;;;;;;;4962526;28;20534;-71
2022/02/17 06:00:09;;;;;;;9.20;1.50;;;;;;;;;;4962129;28;20505;-70
2022/02/17 06:02:35;;;;;;;9.43;1.48;;;;;;;;;;4961427;28;20620;-75
2022/02/17 06:05:01;;;;;;;10.98;1.77;;;;;;;;;;4962913;28;20034;-70
2022/02/17 06:07:27;;;;;;;6.70;1.25;;;;;;;;;;4967744;28;20561;-70
2022/02/17 06:09:53;;;;;;;7.72;1.40;;;;;;;;;;4982062;28;20172;-70
2022/02/17 06:12:20;;;;;;;6.90;1.25;;;;;;;;;;4977378;28;20031;-70
2022/02/17 06:14:46;;;;;;;10.50;1.38;;;;;;;;;;4962822;28;20439;-75
2022/02/17 06:17:13;;;;;;;10.50;1.35;;;;;;;;;;4963106;28;20256;-70
2022/02/17 06:19:39;;;;;;;6.32;1.38;;;;;;;;;;4964594;28;20019;-74
2022/02/17 06:22:06;;;;;;;8.45;2.60;;;;;;;;;;4946351;28;20059;-70
2022/02/17 06:24:32;;;;;;;8.57;1.50;;;;;;;;;;4944041;28;20027;-73
2022/02/17 06:26:58;;;;;;;10.73;1.88;;;;;;;;;;4947645;28;20150;-69
2022/02/17 06:29:26;;;;;;;13.43;1.90;;;;;;;;;;4962850;28;20391;-71
2022/02/17 06:31:53;;;;;;;7.78;1.67;;;;;;;;;;4963675;28;20034;-69
2022/02/17 06:34:19;;;;;;;8.20;1.42;;;;;;;;;;4963991;28;20050;-69
2022/02/17 06:36:46;;;;;;;16.52;2.72;;;;;;;;;;4962476;28;20037;-69
2022/02/17 06:39:13;;;;;;;7.60;1.73;;;;;;;;;;4964452;28;20102;-69
2022/02/17 06:41:39;;;;;;;7.32;1.52;;;;;;;;;;4964350;28;20042;-69
2022/02/17 06:44:06;;;;;;;9.77;1.73;;;;;;;;;;4963631;28;20026;-71
2022/02/17 06:46:33;;;;;;;5.45;1.33;;;;;;;;;;4962330;28;20062;-69
2022/02/17 06:48:59;;;;;;;12.98;1.65;;;;;;;;;;4963793;28;20074;-70
2022/02/17 06:51:25;;;;;;;8.30;2.35;;;;;;;;;;4961093;28;20067;-69
2022/02/17 06:53:51;;;;;;;9.45;1.33;;;;;;;;;;4962014;28;20031;-69
2022/02/17 06:56:17;;;;;;;9.05;1.65;;;;;;;;;;4961274;28;20065;-69
2022/02/17 06:58:43;;;;;;;6.03;1.52;;;;;;;;;;4962480;28;20080;-69
2022/02/17 07:01:10;;;;;;;9.52;2.83;;;;;;;;;;4961954;28;20027;-69
2022/02/17 07:03:36;;;;;;;5.03;1.20;;;;;;;;;;4962300;28;20034;-69
2022/02/17 07:06:02;;;;;;;4.45;1.30;;;;;;;;;;4962169;28;20022;-69
2022/02/17 07:08:28;;;;;;;4.80;1.38;;;;;;;;;;4963571;28;20031;-69
2022/02/17 07:10:54;;;;;;;6.30;1.42;;;;;;;;;;4963715;28;20415;-68
2022/02/17 07:13:21;;;;;;;7.47;1.60;;;;;;;;;;4963605;28;20046;-68
2022/02/17 07:15:50;;;;;;;6.65;1.88;;;;;;;;;;4963843;28;20026;-69
2022/02/17 07:18:17;;;;;;;4.65;1.35;;;;;;;;;;4962221;28;20050;-69
2022/02/17 07:20:44;;;;;;;9.90;2.00;;;;;;;;;;4963444;28;20047;-74
2022/02/17 07:23:11;;;;;;;10.10;1.90;;;;;;;;;;4963236;28;20031;-69
2022/02/17 07:25:37;;;;;;;5.97;1.48;;;;;;;;;;4963507;28;20015;-69
2022/02/17 07:28:03;;;;;;;5.45;1.45;;;;;;;;;;4963806;28;20058;-69
2022/02/17 07:30:30;;;;;;;9.55;1.90;;;;;;;;;;4962125;28;20019;-69
2022/02/17 07:32:56;;;;;;;10.00;1.35;;;;;;;;;;4963385;28;20078;-69
2022/02/17 07:35:22;;;;;;;6.72;1.50;;;;;;;;;;4963677;28;20109;-69
2022/02/17 07:37:48;;;;;;;5.90;1.70;;;;;;;;;;4961635;28;20759;-69
2022/02/17 07:40:17;;;;;;;11.35;2.00;;;;;;;;;;4963576;28;20578;-69
2022/02/17 07:42:45;;;;;;;13.43;2.47;;;;;;;;;;4963210;28;20121;-69
2022/02/17 07:45:15;;;;;;;9.27;2.10;;;;;;;;;;4966148;28;20027;-68
2022/02/17 07:47:45;;;;;;;9.13;1.88;;;;;;;;;;4979986;28;20034;-68
2022/02/17 07:50:18;;;;;;;4.32;1.40;;;;;;;;;;4962968;28;20034;-68
2022/02/17 07:52:45;;;;;;;5.05;1.50;;;;;;;;;;4961514;28;20034;-68
2022/02/17 07:55:11;;;;;;;8.07;2.40;;;;;;;;;;4962592;28;20027;-68
2022/02/17 07:57:38;;;;;;;7.75;1.33;;;;;;;;;;4961774;28;20383;-69
2022/02/17 08:00:05;;;;;;;9.68;1.73;;;;;;;;;;4962286;28;20023;-68
2022/02/17 08:02:31;;;;;;;10.45;2.97;;;;;;;;;;4961007;28;20078;-68
2022/02/17 08:04:59;;;;;;;19.50;4.85;;;;;;;;;;4964417;28;20023;-68
2022/02/17 08:07:25;;;;;;;11.60;4.50;;;;;;;;;;4958351;28;20535;-68
2022/02/17 08:09:53;;;;;;;11.55;4.15;;;;;;;;;;4973942;28;20057;-68
2022/02/17 08:12:19;;;;;;;17.73;6.90;;;;;;;;;;4954440;28;20040;-68
2022/02/17 08:14:46;;;;;;;17.00;6.70;;;;;;;;;;4961703;28;20081;-68
2022/02/17 08:17:12;;;;;;;13.55;5.95;;;;;;;;;;4965461;28;20059;-74
2022/02/17 08:19:38;;;;;;;10.82;5.55;;;;;;;;;;4959816;28;20030;-70
2022/02/17 08:22:04;;;;;;;20.80;7.95;;;;;;;;;;4946449;28;20055;-69
2022/02/17 08:24:30;;;;;;;15.38;5.00;;;;;;;;;;4946428;28;20647;-72
2022/02/17 08:26:57;;;;;;;11.25;4.57;;;;;;;;;;4945493;28;20713;-69
2022/02/17 08:29:23;;;;;;;14.52;3.05;;;;;;;;;;4946601;28;20015;-68
2022/02/17 08:31:50;;;;;;;6.80;2.88;;;;;;;;;;4946429;28;20035;-68
2022/02/17 08:34:16;;;;;;;8.45;2.28;;;;;;;;;;4946291;28;20554;-68
2022/02/17 08:36:42;;;;;;;9.70;2.97;;;;;;;;;;4946357;28;20030;-68
2022/02/17 08:39:09;;;;;;;7.25;2.28;;;;;;;;;;4946346;28;20608;-69
2022/02/17 08:41:36;;;;;;;7.47;1.90;;;;;;;;;;4945406;28;20035;-68
2022/02/17 08:44:06;;;;;;;11.88;1.80;;;;;;;;;;4945843;28;20597;-69
2022/02/17 08:46:33;;;;;;;5.18;2.05;;;;;;;;;;4945956;28;20027;-72
2022/02/17 08:48:59;;;;;;;6.93;1.88;;;;;;;;;;4946814;28;20630;-69
2022/02/17 08:51:29;;;;;;;7.68;1.35;;;;;;;;;;4947731;28;20035;-68
2022/02/17 08:53:55;;;;;;;11.10;1.83;;;;;;;;;;4962260;28;20088;-71
2022/02/17 08:56:22;;;;;;;9.52;1.45;;;;;;;;;;4965115;28;20479;-69
2022/02/17 08:58:48;;;;;;;6.00;1.27;;;;;;;;;;4965464;28;20110;-69
2022/02/17 09:01:14;;;;;;;6.28;1.45;;;;;;;;;;4964226;28;20264;-68
2022/02/17 09:03:40;;;;;;;7.18;1.73;;;;;;;;;;4965696;28;20027;-68
2022/02/17 09:06:06;;;;;;;12.10;1.67;;;;;;;;;;4965104;28;20683;-69
2022/02/17 09:08:32;;;;;;;12.15;1.98;;;;;;;;;;4965099;28;20026;-70
2022/02/17 09:10:59;;;;;;;5.93;1.40;;;;;;;;;;4966319;28;20062;-69
2022/02/17 09:13:25;;;;;;;9.50;1.75;;;;;;;;;;4964467;28;20023;-68
2022/02/17 09:15:52;;;;;;;8.07;2.25;;;;;;;;;;4964498;28;20027;-68
2022/02/17 09:18:18;;;;;;;7.40;1.92;;;;;;;;;;4964913;28;20042;-69
2022/02/17 09:20:44;;;;;;;6.90;1.67;;;;;;;;;;4964324;28;20055;-68
2022/02/17 09:23:10;;;;;;;6.97;1.60;;;;;;;;;;4963870;28;20053;-74
2022/02/17 09:25:37;;;;;;;11.25;2.00;;;;;;;;;;4965769;28;20050;-69
2022/02/17 09:28:03;;;;;;;5.70;1.60;;;;;;;;;;4965467;28;20050;-69
2022/02/17 09:30:29;;;;;;;6.90;2.03;;;;;;;;;;4964800;28;20038;-68
2022/02/17 09:32:56;;;;;;;3.92;1.33;;;;;;;;;;4963265;28;20037;-68
2022/02/17 09:35:22;;;;;;;9.30;2.75;;;;;;;;;;4965474;28;20023;-68
2022/02/17 09:37:48;;;;;;;9.18;2.13;;;;;;;;;;4964692;28;20540;-70
2022/02/17 09:40:20;;;;;;;7.07;1.73;;;;;;;;;;4964858;28;20023;-68
2022/02/17 09:42:46;;;;;;;8.75;1.90;;;;;;;;;;4962693;28;20118;-68
2022/02/17 09:45:12;;;;;;;7.25;1.98;;;;;;;;;;4964901;28;20102;-68
2022/02/17 09:47:39;;;;;;;8.13;1.42;;;;;;;;;;4964377;28;20026;-69
2022/02/17 09:50:10;;;;;;;13.43;1.92;;;;;;;;;;4964828;28;20037;-72
2022/02/17 09:52:37;;;;;;;8.68;1.95;;;;;;;;;;4964205;28;20030;-72
2022/02/17 09:55:04;;;;;;;6.22;1.60;;;;;;;;;;4964075;28;20030;-70
2022/02/17 09:57:32;;;;;;;8.88;1.98;;;;;;;;;;4963016;28;20051;-69
2022/02/17 09:59:59;;;;;;;7.13;1.50;;;;;;;;;;4965197;28;20062;-71
2022/02/17 10:02:26;;;;;;;11.65;1.90;;;;;;;;;;4963800;28;20042;-74
2022/02/17 10:04:56;;;;;;;5.07;1.20;;;;;;;;;;4964161;28;20056;-68
2022/02/17 10:07:32;;;;;;;13.95;2.53;;;;;;;;;;4964053;28;20026;-68
2022/02/17 10:10:05;;;;;;;8.30;1.27;;;;;;;;;;4964419;28;20507;-69
2022/02/17 10:12:51;;;;;;;6.18;1.48;;;;;;;;;;4963735;28;20121;-68
2022/02/17 10:15:26;;;;;;;14.93;1.90;;;;;;;;;;4964309;28;20035;-68
2022/02/17 10:18:16;;;;;;;7.30;1.45;;;;;;;;;;4964245;28;20019;-68
2022/02/17 10:20:56;;;;;;;11.88;1.45;;;;;;;;;;4963960;28;20051;-68
2022/02/17 10:23:33;;;;;;;4.40;1.30;;;;;;;;;;4964486;28;20042;-68
2022/02/17 10:26:16;;;;;;;7.13;1.33;;;;;;;;;;4961970;28;20031;-74
2022/02/17 10:28:53;;;;;;;7.90;2.13;;;;;;;;;;4963683;28;20023;-68
2022/02/17 10:31:23;;;;;;;5.90;1.45;;;;;;;;;;4963945;28;20025;-71
2022/02/17 10:33:54;;;;;;;4.40;1.15;;;;;;;;;;4963587;28;20030;-68
2022/02/17 10:36:34;;;;;;;6.53;1.33;;;;;;;;;;4962092;28;20384;-68
2022/02/17 10:39:22;;;;;;;6.20;1.40;;;;;;;;;;4963242;28;20029;-70
2022/02/17 10:41:53;;;;;;;14.90;1.60;;;;;;;;;;4963261;28;20121;-68
2022/02/17 10:44:20;;;;;;;7.18;1.48;;;;;;;;;;4963391;28;20022;-69
2022/02/17 10:46:46;;;;;;;4.85;1.65;;;;;;;;;;4961698;28;20023;-68
2022/02/17 10:49:17;;;;;;;5.38;1.30;;;;;;;;;;4963109;28;20085;-68
2022/02/17 10:51:43;;;;;;;6.10;1.20;;;;;;;;;;4963113;28;20044;-69
2022/02/17 10:54:10;;;;;;;8.82;1.60;;;;;;;;;;4963605;28;20504;-68
2022/02/17 10:56:38;;;;;;;9.18;2.40;;;;;;;;;;4963478;28;20109;-74
2022/02/17 11:01:58;;;;;;;5.78;1.15;;;;;;;;;;4952381;28;20617;-71
2022/02/17 11:04:25;;;;;;;6.35;1.02;;;;;;;;;;4962103;28;20114;-69
2022/02/17 11:06:54;;;;;;;4.03;0.98;;;;;;;;;;4963776;28;20030;-69
2022/02/17 11:09:20;;;;;;;4.97;1.40;;;;;;;;;;4961389;28;20077;-68
2022/02/17 11:11:51;;;;;;;3.15;1.10;;;;;;;;;;4962899;28;20029;-68
2022/02/17 11:14:35;;;;;;;4.80;1.23;;;;;;;;;;4963045;28;20034;-68
2022/02/17 11:17:02;;;;;;;2.88;0.90;;;;;;;;;;4963092;28;20027;-68
2022/02/17 11:19:28;;;;;;;15.30;1.45;;;;;;;;;;4962731;28;20027;-69
2022/02/17 11:21:54;;;;;;;6.35;1.20;;;;;;;;;;4961320;28;20886;-71
2022/02/17 11:24:21;;;;;;;4.75;1.90;;;;;;;;;;4963171;28;20053;-68
2022/02/17 11:26:47;;;;;;;7.18;1.48;;;;;;;;;;4963256;28;20093;-68
2022/02/17 11:29:30;;;;;;;2.67;1.00;;;;;;;;;;4962753;28;20022;-68
2022/02/17 11:31:57;;;;;;;3.38;1.00;;;;;;;;;;4963210;28;20019;-71
2022/02/17 11:34:47;;;;;;;5.18;1.50;;;;;;;;;;4960880;28;20032;-68
2022/02/17 11:37:31;;;;;;;4.82;1.42;;;;;;;;;;4958171;28;20066;-71
2022/02/17 11:40:17;;;;;;;6.88;1.55;;;;;;;;;;4966711;28;20624;-71
2022/02/17 11:42:45;;;;;;;6.28;1.10;;;;;;;;;;4967271;28;20616;-69
2022/02/17 11:45:21;;;;;;;8.30;1.27;;;;;;;;;;4966863;28;20026;-68
2022/02/17 11:47:50;;;;;;;6.40;1.45;;;;;;;;;;4966584;28;20992;-68
2022/02/17 11:50:33;;;;;;;6.97;2.50;;;;;;;;;;4966032;28;20027;-68
2022/02/17 11:53:18;;;;;;;4.38;1.27;;;;;;;;;;4958045;28;20027;-68
2022/02/17 11:55:44;;;;;;;4.45;1.40;;;;;;;;;;4965318;28;20034;-68
2022/02/17 11:58:29;;;;;;;7.25;1.38;;;;;;;;;;4966060;28;20050;-72
2022/02/17 12:00:55;;;;;;;5.00;1.42;;;;;;;;;;4965351;28;20070;-68
2022/02/17 12:03:47;;;;;;;7.70;1.33;;;;;;;;;;4966074;28;20043;-69
2022/02/17 12:06:32;;;;;;;8.38;1.23;;;;;;;;;;4943625;28;20473;-69
2022/02/17 12:08:59;;;;;;;6.55;1.75;;;;;;;;;;4962688;28;20430;-73
2022/02/17 12:11:31;;;;;;;5.30;1.63;;;;;;;;;;4954266;28;20034;-68
2022/02/17 12:14:00;;;;;;;5.75;1.55;;;;;;;;;;4966140;28;20031;-68
2022/02/17 12:16:40;;;;;;;4.57;1.05;;;;;;;;;;4964748;28;20023;-74
2022/02/17 12:19:09;;;;;;;11.20;2.10;;;;;;;;;;4964748;28;20038;-73
2022/02/17 12:21:37;;;;;;;4.85;1.20;;;;;;;;;;4965125;28;20057;-72
2022/02/17 12:24:03;;;;;;;6.15;1.25;;;;;;;;;;4963960;28;20023;-69
2022/02/17 12:27:03;;;;;;;5.75;1.23;;;;;;;;;;4965125;28;20030;-69
2022/02/17 12:29:22;;;;;;;7.30;1.20;;;;;;;;;;4961683;28;20035;-68
2022/02/17 12:31:50;;;;;;;4.90;1.02;;;;;;;;;;4965284;28;20018;-70
2022/02/17 12:34:16;;;;;;;6.05;1.20;;;;;;;;;;4964493;28;20880;-69
2022/02/17 12:36:42;;;;;;;3.92;1.00;;;;;;;;;;4965685;28;20086;-69
2022/02/17 12:39:09;;;;;;;4.15;1.50;;;;;;;;;;4964708;28;20027;-68
2022/02/17 12:41:35;;;;;;;8.23;1.40;;;;;;;;;;4961162;28;20045;-73
2022/02/17 12:44:01;;;;;;;4.10;1.35;;;;;;;;;;4953090;28;20031;-69
2022/02/17 12:46:27;;;;;;;3.58;1.10;;;;;;;;;;4962125;28;20022;-69
2022/02/17 12:48:54;;;;;;;8.15;1.98;;;;;;;;;;4981484;28;20034;-70
2022/02/17 12:51:24;;;;;;;6.28;1.75;;;;;;;;;;4980175;28;20428;-69
2022/02/17 12:53:52;;;;;;;5.90;1.73;;;;;;;;;;4961776;28;20097;-69
2022/02/17 12:56:21;;;;;;;5.00;1.50;;;;;;;;;;4965266;28;20110;-70
2022/02/17 12:58:48;;;;;;;6.75;1.63;;;;;;;;;;4965364;28;20031;-70
2022/02/17 13:01:25;;;;;;;5.78;1.58;;;;;;;;;;4964274;28;20046;-68
2022/02/17 13:03:51;;;;;;;8.35;1.70;;;;;;;;;;4967903;28;20033;-74
2022/02/17 13:06:17;;;;;;;3.65;1.25;;;;;;;;;;4956202;28;20033;-69
2022/02/17 13:08:53;;;;;;;4.30;1.40;;;;;;;;;;4980188;28;20034;-70
2022/02/17 13:11:24;;;;;;;6.15;1.70;;;;;;;;;;4965109;28;20019;-69
2022/02/17 13:14:01;;;;;;;8.13;1.83;;;;;;;;;;4965320;28;20470;-69
2022/02/17 13:16:27;;;;;;;4.47;1.17;;;;;;;;;;4964347;28;20027;-68
2022/02/17 13:18:54;;;;;;;6.57;1.58;;;;;;;;;;4975107;28;20106;-76
2022/02/17 13:21:20;;;;;;;4.95;2.13;;;;;;;;;;4950333;28;20044;-69
2022/02/17 13:23:48;;;;;;;4.55;1.27;;;;;;;;;;4966342;28;20026;-71
2022/02/17 13:26:31;;;;;;;23.60;2.33;;;;;;;;;;4961556;28;20066;-73
2022/02/17 13:28:58;;;;;;;15.52;1.98;;;;;;;;;;4949041;28;20085;-72
2022/02/17 13:31:26;;;;;;;5.95;1.20;;;;;;;;;;4961343;28;20114;-71
2022/02/17 13:34:03;;;;;;;9.77;2.17;;;;;;;;;;4959685;28;20031;-69
2022/02/17 13:36:30;;;;;;;6.13;1.50;;;;;;;;;;4946933;28;20031;-74
2022/02/17 13:39:06;;;;;;;6.43;1.48;;;;;;;;;;4949664;28;20395;-68
2022/02/17 13:41:32;;;;;;;3.65;1.05;;;;;;;;;;4943243;28;20035;-69
2022/02/17 13:43:59;;;;;;;5.53;1.48;;;;;;;;;;4945114;28;20032;-70
2022/02/17 13:46:25;;;;;;;5.45;1.25;;;;;;;;;;4945522;28;20027;-68
2022/02/17 13:48:51;;;;;;;5.30;1.90;;;;;;;;;;4956695;28;20033;-68
2022/02/17 13:51:18;;;;;;;6.50;1.92;;;;;;;;;;4956359;28;20026;-69
2022/02/17 13:53:51;;;;;;;4.63;1.40;;;;;;;;;;4963192;28;20081;-69
2022/02/17 13:56:21;;;;;;;4.60;1.20;;;;;;;;;;4957959;28;20042;-68
2022/02/17 13:58:47;;;;;;;5.63;1.25;;;;;;;;;;4960500;28;20668;-69
2022/02/17 14:01:14;;;;;;;8.82;1.42;;;;;;;;;;4958931;28;20037;-69
2022/02/17 14:03:44;;;;;;;7.80;1.23;;;;;;;;;;4963822;28;20039;-69
2022/02/17 14:06:18;;;;;;;5.13;1.20;;;;;;;;;;4963992;28;20046;-69
2022/02/17 14:08:45;;;;;;;4.68;1.45;;;;;;;;;;4964130;28;20058;-72
2022/02/17 14:11:11;;;;;;;4.68;1.00;;;;;;;;;;4962241;28;20023;-69
2022/02/17 14:13:38;;;;;;;4.40;1.50;;;;;;;;;;4963824;28;20027;-71
2022/02/17 14:16:04;;;;;;;9.00;1.60;;;;;;;;;;4963966;28;20513;-72
2022/02/17 14:18:30;;;;;;;5.75;1.90;;;;;;;;;;4962501;28;20138;-69
2022/02/17 14:20:57;;;;;;;2.83;1.13;;;;;;;;;;4963284;28;20538;-68
2022/02/17 14:23:24;;;;;;;5.55;0.90;;;;;;;;;;4963352;28;20550;-69
2022/02/17 14:25:50;;;;;;;5.70;0.90;;;;;;;;;;4963340;28;20372;-68
2022/02/17 14:28:16;;;;;;;5.45;1.17;;;;;;;;;;4963466;28;20054;-69
2022/02/17 14:30:46;;;;;;;3.42;1.00;;;;;;;;;;4960785;28;20540;-69
2022/02/17 14:33:19;;;;;;;5.78;1.70;;;;;;;;;;4963568;28;20035;-69
2022/02/17 14:35:46;;;;;;;3.53;0.98;;;;;;;;;;4963468;28;20926;-69
2022/02/17 14:38:13;;;;;;;6.28;1.05;;;;;;;;;;4963446;28;20073;-69
2022/02/17 14:40:41;;;;;;;4.75;1.10;;;;;;;;;;4961936;28;20053;-69
2022/02/17 14:43:08;;;;;;;4.00;0.82;;;;;;;;;;4963252;28;20034;-69
2022/02/17 14:45:34;;;;;;;7.45;1.15;;;;;;;;;;4963292;28;20027;-68
2022/02/17 14:48:00;;;;;;;3.58;0.80;;;;;;;;;;4963619;28;20035;-72
2022/02/17 14:50:29;;;;;;;3.35;1.30;;;;;;;;;;4960136;28;20019;-69